Time;durP1;ratioP1;P1;durP2;ratioP2;P2;SDS_P1;SDS_P2;PMS_P1;PMS_P2;Temp;Humidity;BMP_temperature;BMP_pressure;BME280_temperature;BME280_humidity;BME280_pressure;Samples;Min_cycle;Max_cycle;Signal;HPM_P1;HPM_P2
2023/08/24 00:01:16;;;;;;;3.95;2.45;;;24.10;99.90;;;;;;5012658;28;20026;-37
2023/08/24 00:03:44;;;;;;;4.43;2.50;;;24.10;99.90;;;;;;5011439;28;20384;-37
2023/08/24 00:06:10;;;;;;;3.00;2.13;;;24.10;99.90;;;;;;5011347;28;20041;-37
2023/08/24 00:08:37;;;;;;;4.15;2.47;;;24.10;99.90;;;;;;5011364;28;20033;-37
2023/08/24 00:11:02;;;;;;;2.88;2.08;;;24.10;99.90;;;;;;5011078;28;20022;-37
2023/08/24 00:13:28;;;;;;;4.03;2.47;;;24.10;99.90;;;;;;5011377;28;20037;-37
2023/08/24 00:15:54;;;;;;;3.05;2.20;;;24.10;99.90;;;;;;5011266;28;20030;-38
2023/08/24 00:18:21;;;;;;;3.50;2.50;;;24.10;99.90;;;;;;5011281;28;20396;-38
2023/08/24 00:20:48;;;;;;;3.90;2.30;;;24.10;99.90;;;;;;5011090;28;20026;-38
2023/08/24 00:23:14;;;;;;;3.83;2.40;;;24.10;99.90;;;;;;5011366;28;20037;-37
2023/08/24 00:25:40;;;;;;;5.50;2.75;;;24.10;99.90;;;;;;5011309;28;20112;-38
2023/08/24 00:28:06;;;;;;;6.43;2.92;;;24.10;99.90;;;;;;5014261;28;20065;-38
2023/08/24 00:30:32;;;;;;;3.72;2.50;;;24.10;99.90;;;;;;5014666;28;20034;-37
2023/08/24 00:32:58;;;;;;;4.38;2.60;;;24.10;99.90;;;;;;5015013;28;20032;-38
2023/08/24 00:35:24;;;;;;;3.92;2.38;;;24.10;99.90;;;;;;5014962;28;20026;-38
2023/08/24 00:37:50;;;;;;;3.05;2.08;;;24.00;99.90;;;;;;5014776;28;20033;-38
2023/08/24 00:40:16;;;;;;;5.07;2.53;;;24.00;99.90;;;;;;5013329;28;20026;-40
2023/08/24 00:42:44;;;;;;;4.18;2.53;;;24.00;99.90;;;;;;5014788;28;20029;-37
2023/08/24 00:45:11;;;;;;;5.90;2.80;;;24.00;99.90;;;;;;5014730;28;20042;-37
2023/08/24 00:47:42;;;;;;;4.00;2.35;;;24.00;99.90;;;;;;5014629;28;20114;-37
2023/08/24 00:50:09;;;;;;;2.33;2.10;;;24.00;99.90;;;;;;5014372;28;20037;-38
2023/08/24 00:52:39;;;;;;;3.70;2.60;;;24.00;99.90;;;;;;5015114;28;20363;-37
2023/08/24 00:55:05;;;;;;;4.53;2.38;;;24.00;99.90;;;;;;5014610;28;20029;-38
2023/08/24 00:57:32;;;;;;;4.30;2.47;;;24.00;99.90;;;;;;5014355;28;20021;-37
2023/08/24 01:00:01;;;;;;;2.97;2.20;;;24.00;99.90;;;;;;5014522;28;20407;-38
2023/08/24 01:02:27;;;;;;;2.80;2.10;;;24.00;99.90;;;;;;5014452;28;20120;-37
2023/08/24 01:04:53;;;;;;;4.20;2.50;;;24.00;99.90;;;;;;5014671;28;20156;-38
2023/08/24 01:07:20;;;;;;;4.15;2.60;;;24.00;99.90;;;;;;5014363;28;20026;-38
2023/08/24 01:09:46;;;;;;;3.53;2.67;;;24.00;99.90;;;;;;5014022;28;20041;-39
2023/08/24 01:12:38;;;;;;;4.32;2.53;;;24.00;99.90;;;;;;5014134;28;20431;-38
2023/08/24 01:15:28;;;;;;;4.45;2.42;;;24.00;99.90;;;;;;5014317;28;20507;-37
2023/08/24 01:17:57;;;;;;;2.60;2.40;;;24.00;99.90;;;;;;5014228;28;20080;-38
2023/08/24 01:20:23;;;;;;;3.28;2.22;;;24.00;99.90;;;;;;5013847;28;20033;-38
2023/08/24 01:22:55;;;;;;;3.30;2.65;;;24.00;99.90;;;;;;5014052;28;20109;-37
2023/08/24 01:25:46;;;;;;;3.55;2.40;;;24.00;99.90;;;;;;5014069;28;20022;-37
2023/08/24 01:28:13;;;;;;;3.53;2.53;;;24.00;99.90;;;;;;5013978;28;20026;-37
2023/08/24 01:30:39;;;;;;;3.30;2.40;;;23.90;99.90;;;;;;5013704;28;20399;-38
2023/08/24 01:33:05;;;;;;;6.00;2.97;;;23.90;99.90;;;;;;5013769;28;20021;-38
2023/08/24 01:35:31;;;;;;;2.97;2.67;;;23.90;99.90;;;;;;5013809;28;20046;-38
2023/08/24 01:38:02;;;;;;;4.20;2.60;;;23.90;99.90;;;;;;5012848;28;20034;-38
2023/08/24 01:40:34;;;;;;;3.20;2.40;;;23.90;99.90;;;;;;5013378;28;20025;-38
2023/08/24 01:43:09;;;;;;;3.70;2.67;;;23.90;99.90;;;;;;5013815;28;20103;-38
2023/08/24 01:45:35;;;;;;;4.45;2.25;;;23.90;99.90;;;;;;5013677;28;20101;-38
2023/08/24 01:48:04;;;;;;;5.85;2.45;;;23.90;99.90;;;;;;5013590;28;20445;-38
2023/08/24 01:50:33;;;;;;;4.13;2.30;;;23.90;99.90;;;;;;5013545;28;20065;-38
2023/08/24 01:52:59;;;;;;;2.85;2.38;;;23.90;99.90;;;;;;5013489;28;20033;-39
2023/08/24 01:55:25;;;;;;;5.47;3.03;;;23.90;99.90;;;;;;5012374;28;20033;-38
2023/08/24 01:57:51;;;;;;;5.15;2.65;;;23.90;99.90;;;;;;5013302;28;20447;-37
2023/08/24 02:00:16;;;;;;;2.90;2.40;;;23.90;99.90;;;;;;5013148;28;20026;-38
2023/08/24 02:02:44;;;;;;;3.38;2.53;;;23.90;99.90;;;;;;5013316;28;20057;-38
2023/08/24 02:05:09;;;;;;;2.72;2.45;;;23.90;99.90;;;;;;5013319;28;20072;-39
2023/08/24 02:07:35;;;;;;;5.80;2.70;;;23.90;99.90;;;;;;5013145;28;20045;-38
2023/08/24 02:10:01;;;;;;;4.18;2.70;;;23.90;99.90;;;;;;5012861;28;20029;-38
2023/08/24 02:12:27;;;;;;;3.13;2.45;;;23.90;99.90;;;;;;5013052;28;20125;-38
2023/08/24 02:14:52;;;;;;;8.55;2.45;;;23.90;99.90;;;;;;5013295;28;20038;-38
2023/08/24 02:17:18;;;;;;;5.45;2.20;;;23.90;99.90;;;;;;5012941;28;20022;-38
2023/08/24 02:19:43;;;;;;;3.15;2.28;;;23.90;99.90;;;;;;5012913;28;20029;-40
2023/08/24 02:22:09;;;;;;;2.80;2.20;;;23.90;99.90;;;;;;5012981;28;20029;-38
2023/08/24 02:24:35;;;;;;;2.75;2.45;;;23.90;99.90;;;;;;5012806;28;20026;-39
2023/08/24 02:27:01;;;;;;;2.63;2.35;;;23.80;99.90;;;;;;5012680;28;20022;-38
2023/08/24 02:29:27;;;;;;;3.60;2.40;;;23.80;99.90;;;;;;5012589;28;20037;-39
2023/08/24 02:31:53;;;;;;;2.38;2.17;;;23.90;99.90;;;;;;5012811;28;20025;-38
2023/08/24 02:34:19;;;;;;;6.20;2.50;;;23.80;99.90;;;;;;5012719;28;20021;-38
2023/08/24 02:36:44;;;;;;;3.20;2.38;;;23.80;99.90;;;;;;5012714;28;20026;-39
2023/08/24 02:39:10;;;;;;;2.85;2.25;;;23.80;99.90;;;;;;5012289;28;20491;-38
2023/08/24 02:41:36;;;;;;;3.88;2.35;;;23.80;99.90;;;;;;5012554;28;20431;-37
2023/08/24 02:44:02;;;;;;;2.65;2.30;;;23.80;99.90;;;;;;5012524;28;20501;-40
2023/08/24 02:46:28;;;;;;;4.07;2.38;;;23.80;99.90;;;;;;5012735;28;20030;-38
2023/08/24 02:48:54;;;;;;;3.13;2.40;;;23.80;99.90;;;;;;5012303;28;20049;-38
2023/08/24 02:51:22;;;;;;;3.08;2.40;;;23.80;99.90;;;;;;5012066;28;20022;-37
2023/08/24 02:53:48;;;;;;;3.17;2.58;;;23.80;99.90;;;;;;5012485;28;20522;-38
2023/08/24 02:56:14;;;;;;;4.43;2.17;;;23.80;99.90;;;;;;5012272;28;20033;-38
2023/08/24 02:58:39;;;;;;;4.13;2.38;;;23.80;99.90;;;;;;5012272;28;20169;-38
2023/08/24 03:01:09;;;;;;;2.30;2.10;;;23.80;99.90;;;;;;5012300;28;20404;-38
2023/08/24 03:03:36;;;;;;;3.63;2.53;;;23.80;99.90;;;;;;5012263;28;20061;-37
2023/08/24 03:06:03;;;;;;;3.25;2.13;;;23.80;99.90;;;;;;5012222;28;20026;-39
2023/08/24 03:08:30;;;;;;;3.05;2.33;;;23.80;99.90;;;;;;5012126;28;20054;-39
2023/08/24 03:10:56;;;;;;;3.53;2.50;;;23.80;99.90;;;;;;5011758;28;20029;-39
2023/08/24 03:13:22;;;;;;;2.88;2.30;;;23.80;99.90;;;;;;5012052;28;20061;-39
2023/08/24 03:15:48;;;;;;;3.92;2.33;;;23.80;99.90;;;;;;5012009;28;20021;-39
2023/08/24 03:18:16;;;;;;;4.90;2.28;;;23.80;99.90;;;;;;5011923;28;20080;-38
2023/08/24 03:20:42;;;;;;;4.45;2.70;;;23.80;99.90;;;;;;5011756;28;20022;-40
2023/08/24 03:23:08;;;;;;;2.70;2.45;;;23.80;99.90;;;;;;5012389;28;20037;-40
2023/08/24 03:25:38;;;;;;;2.60;2.20;;;23.80;99.90;;;;;;5011761;28;20083;-38
2023/08/24 03:28:05;;;;;;;3.33;2.40;;;23.80;99.90;;;;;;5011815;28;20022;-38
2023/08/24 03:30:30;;;;;;;4.75;2.13;;;23.80;99.90;;;;;;5011499;28;20029;-38
2023/08/24 03:32:56;;;;;;;4.28;2.53;;;23.80;99.90;;;;;;5011766;28;20392;-39
2023/08/24 03:35:22;;;;;;;3.25;2.40;;;23.80;99.90;;;;;;5011770;28;20029;-39
2023/08/24 03:37:47;;;;;;;5.15;2.92;;;23.80;99.90;;;;;;5011988;28;20372;-41
2023/08/24 03:40:13;;;;;;;2.95;2.15;;;23.80;99.90;;;;;;5011380;28;20121;-40
2023/08/24 03:42:39;;;;;;;2.55;2.30;;;23.80;99.90;;;;;;5011660;28;20033;-43
2023/08/24 03:45:05;;;;;;;2.83;2.50;;;23.80;99.90;;;;;;5011651;28;20028;-45
2023/08/24 03:47:31;;;;;;;6.10;2.38;;;23.80;99.90;;;;;;5011560;28;20092;-42
2023/08/24 03:49:57;;;;;;;4.80;2.50;;;23.80;99.90;;;;;;5010073;28;20038;-41
2023/08/24 03:52:22;;;;;;;3.70;2.30;;;23.70;99.90;;;;;;5011712;28;20109;-39
2023/08/24 03:54:48;;;;;;;2.65;2.28;;;23.70;99.90;;;;;;5011391;28;20030;-39
2023/08/24 03:57:15;;;;;;;5.25;2.63;;;23.80;99.90;;;;;;5011494;28;20022;-42
2023/08/24 03:59:41;;;;;;;6.10;2.40;;;23.70;99.90;;;;;;5011342;28;20037;-39
2023/08/24 04:02:06;;;;;;;5.10;2.60;;;23.70;99.90;;;;;;5013099;28;20069;-39
2023/08/24 04:04:32;;;;;;;5.47;2.55;;;23.70;99.90;;;;;;5015611;28;20038;-39
2023/08/24 04:06:58;;;;;;;5.20;2.70;;;23.70;99.90;;;;;;5015428;28;20096;-39
2023/08/24 04:09:24;;;;;;;2.63;2.38;;;23.70;99.90;;;;;;5015118;28;20083;-42
2023/08/24 04:11:49;;;;;;;3.50;2.65;;;23.70;99.90;;;;;;5015443;28;20430;-40
2023/08/24 04:14:15;;;;;;;5.63;2.88;;;23.70;99.90;;;;;;5015399;28;20034;-40
2023/08/24 04:16:41;;;;;;;2.90;2.40;;;23.70;99.90;;;;;;5014266;28;20161;-44
2023/08/24 04:19:11;;;;;;;4.80;2.67;;;23.70;99.90;;;;;;5016099;28;20030;-39
2023/08/24 04:21:37;;;;;;;2.88;2.40;;;23.70;99.90;;;;;;5014799;28;20021;-38
2023/08/24 04:24:05;;;;;;;2.85;2.25;;;23.70;99.90;;;;;;5016141;28;20108;-41
2023/08/24 04:26:31;;;;;;;2.78;2.33;;;23.70;99.90;;;;;;5016282;28;20025;-37
2023/08/24 04:28:56;;;;;;;3.78;2.30;;;23.70;99.90;;;;;;5014875;28;20030;-38
2023/08/24 04:31:22;;;;;;;5.28;2.40;;;23.70;99.90;;;;;;5015200;28;20026;-38
2023/08/24 04:33:48;;;;;;;2.88;2.30;;;23.70;99.90;;;;;;5015008;28;20383;-39
2023/08/24 04:36:13;;;;;;;6.65;2.60;;;23.70;99.90;;;;;;5014951;28;20043;-39
2023/08/24 04:38:39;;;;;;;3.03;2.55;;;23.70;99.90;;;;;;5014802;28;20073;-37
2023/08/24 04:41:08;;;;;;;3.60;2.63;;;23.60;99.90;;;;;;5014743;28;20061;-38
2023/08/24 04:43:35;;;;;;;2.50;2.30;;;23.70;99.90;;;;;;5014791;28;20033;-38
2023/08/24 04:46:00;;;;;;;4.07;2.30;;;23.70;99.90;;;;;;5014902;28;20080;-38
2023/08/24 04:48:26;;;;;;;4.82;2.47;;;23.70;99.90;;;;;;5014662;28;20026;-37
2023/08/24 04:50:53;;;;;;;3.85;2.55;;;23.60;99.90;;;;;;5014852;28;20482;-37
2023/08/24 04:53:19;;;;;;;6.53;2.60;;;23.70;99.90;;;;;;5014824;28;20046;-35
2023/08/24 04:55:46;;;;;;;3.30;2.45;;;23.70;99.90;;;;;;5014613;28;20072;-37
2023/08/24 04:58:13;;;;;;;2.47;2.20;;;23.70;99.90;;;;;;5014528;28;20026;-40
2023/08/24 05:00:39;;;;;;;5.25;2.42;;;23.60;99.90;;;;;;5014287;28;20026;-38
2023/08/24 05:03:06;;;;;;;2.95;2.15;;;23.60;99.90;;;;;;5014471;28;20021;-39
2023/08/24 05:05:35;;;;;;;3.05;2.60;;;23.60;99.90;;;;;;5014369;28;20384;-35
2023/08/24 05:08:02;;;;;;;2.95;2.08;;;23.60;99.90;;;;;;5014278;28;20033;-37
2023/08/24 05:10:32;;;;;;;5.00;2.70;;;23.60;99.90;;;;;;5014027;28;20038;-34
2023/08/24 05:12:57;;;;;;;3.65;2.60;;;23.60;99.90;;;;;;5014182;28;20021;-35
2023/08/24 05:15:23;;;;;;;3.60;2.35;;;23.60;99.90;;;;;;5014306;28;20375;-38
2023/08/24 05:17:50;;;;;;;3.83;2.40;;;23.60;99.90;;;;;;5014101;28;20034;-36
2023/08/24 05:20:15;;;;;;;5.45;2.58;;;23.60;99.90;;;;;;5013926;28;20034;-39
2023/08/24 05:22:41;;;;;;;4.03;2.45;;;23.60;99.90;;;;;;5014241;28;20036;-35
2023/08/24 05:25:07;;;;;;;4.13;2.53;;;23.60;99.90;;;;;;5014115;28;20045;-37
2023/08/24 05:27:33;;;;;;;2.60;2.28;;;23.60;99.90;;;;;;5013996;28;20386;-35
2023/08/24 05:29:58;;;;;;;4.40;2.67;;;23.60;99.90;;;;;;5013630;28;20029;-36
2023/08/24 05:32:24;;;;;;;4.43;2.60;;;23.60;99.90;;;;;;5013865;28;20109;-37
2023/08/24 05:34:50;;;;;;;4.10;2.33;;;23.60;99.90;;;;;;5013857;28;20030;-35
2023/08/24 05:37:16;;;;;;;3.55;2.30;;;23.60;99.90;;;;;;5013609;28;20030;-35
2023/08/24 05:39:41;;;;;;;4.18;2.53;;;23.60;99.90;;;;;;5013587;28;20029;-35
2023/08/24 05:42:08;;;;;;;2.88;2.20;;;23.50;99.90;;;;;;5013727;28;20404;-36
2023/08/24 05:44:34;;;;;;;3.20;2.50;;;23.60;99.90;;;;;;5013667;28;20048;-35
2023/08/24 05:47:01;;;;;;;4.35;2.80;;;23.60;99.90;;;;;;5013633;28;20030;-34
2023/08/24 05:49:33;;;;;;;4.47;2.63;;;23.50;99.90;;;;;;5012585;28;20037;-36
2023/08/24 05:52:00;;;;;;;5.75;2.60;;;23.60;99.90;;;;;;5012381;28;20030;-35
2023/08/24 05:54:26;;;;;;;4.88;2.33;;;23.60;99.90;;;;;;5013924;28;20483;-38
2023/08/24 05:56:51;;;;;;;4.32;2.58;;;23.60;99.90;;;;;;5013601;28;20034;-39
2023/08/24 05:59:17;;;;;;;3.65;2.50;;;23.60;99.90;;;;;;5013093;28;20065;-41
2023/08/24 06:01:42;;;;;;;4.28;2.55;;;23.60;99.90;;;;;;5012217;28;20018;-41
2023/08/24 06:04:09;;;;;;;3.20;2.50;;;23.50;99.90;;;;;;5013414;28;20391;-43
2023/08/24 06:06:37;;;;;;;4.32;2.50;;;23.60;99.90;;;;;;5013258;28;20034;-42
2023/08/24 06:09:06;;;;;;;3.63;2.65;;;23.60;99.90;;;;;;5012974;28;20018;-40
2023/08/24 06:11:33;;;;;;;4.15;2.92;;;23.50;99.90;;;;;;5013169;28;20423;-42
2023/08/24 06:13:58;;;;;;;3.58;2.28;;;23.60;99.90;;;;;;5013157;28;20072;-42
2023/08/24 06:16:24;;;;;;;3.08;2.40;;;23.60;99.90;;;;;;5013071;28;20491;-39
2023/08/24 06:18:50;;;;;;;4.40;2.30;;;23.50;99.90;;;;;;5013013;28;20489;-38
2023/08/24 06:21:16;;;;;;;10.05;3.40;;;23.60;99.90;;;;;;5012890;28;20025;-40
2023/08/24 06:23:42;;;;;;;5.40;3.00;;;23.30;99.90;;;;;;5012936;28;20051;-40
2023/08/24 06:26:08;;;;;;;4.05;3.15;;;23.20;99.90;;;;;;5012456;28;20056;-41
2023/08/24 06:28:33;;;;;;;5.30;3.03;;;23.20;99.90;;;;;;5012897;28;20364;-41
2023/08/24 06:31:00;;;;;;;10.07;3.17;;;23.20;99.90;;;;;;5013118;28;20029;-44
2023/08/24 06:33:33;;;;;;;7.72;3.00;;;23.20;99.90;;;;;;5012748;28;20391;-39
2023/08/24 06:35:58;;;;;;;6.95;3.03;;;23.20;99.90;;;;;;5012808;28;20030;-41
2023/08/24 06:38:25;;;;;;;6.13;2.95;;;23.30;99.90;;;;;;5012673;28;20418;-41
2023/08/24 06:40:50;;;;;;;6.30;3.00;;;23.30;99.90;;;;;;5012540;28;20487;-39
2023/08/24 06:43:16;;;;;;;6.95;3.08;;;23.30;99.90;;;;;;5012939;28;20045;-39
2023/08/24 06:45:41;;;;;;;4.53;2.88;;;23.30;99.90;;;;;;5013048;28;20026;-41
2023/08/24 06:48:07;;;;;;;5.65;3.13;;;23.40;99.90;;;;;;5012414;28;20430;-40
2023/08/24 06:50:36;;;;;;;7.13;3.13;;;23.40;99.90;;;;;;5012123;28;20117;-38
2023/08/24 06:53:03;;;;;;;5.03;3.10;;;23.40;99.90;;;;;;5012465;28;20028;-37
2023/08/24 06:55:29;;;;;;;6.32;2.85;;;23.40;99.90;;;;;;5012413;28;20030;-43
2023/08/24 06:57:54;;;;;;;6.50;2.85;;;23.40;99.90;;;;;;5012152;28;20026;-38
2023/08/24 07:00:20;;;;;;;2.88;2.50;;;23.40;99.90;;;;;;5012107;28;20029;-41
2023/08/24 07:02:47;;;;;;;4.78;3.13;;;23.40;99.90;;;;;;5012281;28;20532;-41
2023/08/24 07:05:13;;;;;;;4.13;3.03;;;23.40;99.90;;;;;;5012223;28;20036;-42
2023/08/24 07:07:38;;;;;;;5.63;3.05;;;23.40;99.90;;;;;;5012169;28;20022;-37
2023/08/24 07:10:06;;;;;;;6.60;2.80;;;23.50;99.90;;;;;;5011847;28;20022;-38
2023/08/24 07:12:31;;;;;;;4.50;2.70;;;23.40;99.90;;;;;;5011985;28;20511;-38
2023/08/24 07:14:57;;;;;;;5.82;3.15;;;23.50;99.90;;;;;;5012082;28;20333;-44
2023/08/24 07:17:23;;;;;;;6.70;2.88;;;23.50;99.90;;;;;;5011990;28;20032;-36
2023/08/24 07:19:49;;;;;;;6.88;3.20;;;23.50;99.90;;;;;;5010457;28;20030;-41
2023/08/24 07:22:14;;;;;;;5.68;3.13;;;23.50;99.90;;;;;;5010590;28;20514;-43
2023/08/24 07:24:41;;;;;;;3.35;2.45;;;23.50;99.90;;;;;;5011908;28;20026;-36
2023/08/24 07:27:08;;;;;;;6.65;3.20;;;23.50;99.90;;;;;;5011690;28;20022;-38
2023/08/24 07:29:34;;;;;;;14.98;3.53;;;23.30;99.90;;;;;;5011741;28;20038;-37
2023/08/24 07:31:59;;;;;;;16.13;3.30;;;23.20;99.90;;;;;;5011849;28;20475;-41
2023/08/24 07:34:25;;;;;;;11.10;3.50;;;23.20;99.90;;;;;;5011747;28;20030;-43
2023/08/24 07:36:50;;;;;;;9.93;3.20;;;23.20;99.90;;;;;;5010919;28;20102;-43
2023/08/24 07:39:16;;;;;;;9.20;3.03;;;23.30;99.90;;;;;;5011327;28;20033;-40
2023/08/24 07:41:42;;;;;;;6.38;3.05;;;23.30;99.90;;;;;;5011648;28;20056;-38
2023/08/24 07:44:08;;;;;;;9.95;3.13;;;23.30;99.90;;;;;;5012031;28;20026;-39
2023/08/24 07:46:33;;;;;;;4.35;3.35;;;23.30;99.90;;;;;;5011935;28;20034;-43
2023/08/24 07:48:59;;;;;;;8.88;3.05;;;23.40;99.90;;;;;;5011367;28;20041;-37
2023/08/24 07:51:25;;;;;;;7.90;3.65;;;23.40;99.90;;;;;;5011475;28;20037;-40
2023/08/24 07:53:52;;;;;;;6.68;3.60;;;23.40;99.90;;;;;;5011637;28;20029;-36
2023/08/24 07:56:18;;;;;;;8.27;3.30;;;23.40;99.90;;;;;;5011512;28;20032;-36
2023/08/24 07:58:44;;;;;;;5.65;2.85;;;23.50;99.90;;;;;;5011564;28;20053;-39
2023/08/24 08:01:11;;;;;;;6.10;3.17;;;23.40;99.90;;;;;;5011593;28;20076;-40
2023/08/24 08:03:36;;;;;;;4.55;3.13;;;23.50;99.90;;;;;;5011407;28;20116;-39
2023/08/24 08:06:03;;;;;;;6.13;3.30;;;23.50;99.90;;;;;;5011494;28;20109;-40
2023/08/24 08:08:28;;;;;;;5.30;3.30;;;23.50;99.90;;;;;;5011350;28;20045;-38
2023/08/24 08:10:59;;;;;;;5.38;3.28;;;23.50;99.90;;;;;;5011061;28;20080;-39
2023/08/24 08:13:25;;;;;;;5.00;3.20;;;23.50;99.90;;;;;;5011386;28;20029;-40
2023/08/24 08:15:51;;;;;;;3.85;2.58;;;23.60;99.90;;;;;;5011480;28;20025;-39
2023/08/24 08:18:16;;;;;;;3.15;2.63;;;23.60;99.90;;;;;;5011274;28;20044;-39
2023/08/24 08:20:42;;;;;;;5.18;3.17;;;23.50;99.90;;;;;;5011138;28;20061;-40
2023/08/24 08:23:08;;;;;;;6.15;3.10;;;23.60;99.90;;;;;;5011272;28;20030;-37
2023/08/24 08:25:33;;;;;;;6.82;2.60;;;23.60;99.90;;;;;;5011142;28;20083;-40
2023/08/24 08:27:59;;;;;;;6.80;2.83;;;23.70;99.90;;;;;;5011252;28;20029;-39
2023/08/24 08:30:24;;;;;;;6.32;3.05;;;23.70;99.90;;;;;;5010993;28;20503;-39
2023/08/24 08:32:54;;;;;;;11.18;3.00;;;23.70;99.90;;;;;;5011342;28;20507;-39
2023/08/24 08:35:21;;;;;;;6.32;3.08;;;23.70;99.90;;;;;;5011173;28;20026;-41
2023/08/24 08:37:49;;;;;;;7.32;3.00;;;23.70;99.90;;;;;;5010954;28;20045;-41
2023/08/24 08:40:15;;;;;;;5.32;3.15;;;23.80;99.90;;;;;;5010906;28;20029;-42
2023/08/24 08:42:41;;;;;;;6.95;3.20;;;23.80;99.90;;;;;;5011109;28;20030;-41
2023/08/24 08:45:10;;;;;;;6.40;3.45;;;23.80;99.90;;;;;;5011157;28;20022;-38
2023/08/24 08:47:36;;;;;;;5.95;3.17;;;23.80;99.90;;;;;;5011589;28;20025;-36
2023/08/24 08:50:03;;;;;;;4.63;2.70;;;23.80;99.90;;;;;;5014477;28;20395;-41
2023/08/24 08:52:29;;;;;;;3.75;2.78;;;23.80;99.90;;;;;;5014656;28;20030;-39
2023/08/24 08:54:54;;;;;;;6.95;3.08;;;23.90;99.90;;;;;;5014833;28;20025;-40
2023/08/24 08:57:24;;;;;;;3.65;2.60;;;23.90;99.90;;;;;;5014665;28;20026;-40
2023/08/24 08:59:52;;;;;;;4.38;2.80;;;23.90;99.90;;;;;;5014426;28;20036;-40
2023/08/24 09:02:19;;;;;;;4.03;2.60;;;23.90;99.90;;;;;;5014508;28;20053;-41
2023/08/24 09:04:45;;;;;;;5.97;2.80;;;23.90;99.90;;;;;;5014492;28;20112;-40
2023/08/24 09:07:13;;;;;;;6.20;2.90;;;23.90;99.90;;;;;;5014352;28;20038;-41
2023/08/24 09:09:40;;;;;;;4.93;2.80;;;23.90;99.90;;;;;;5014112;28;20057;-39
2023/08/24 09:12:06;;;;;;;3.78;2.83;;;23.90;99.90;;;;;;5014362;28;20112;-39
2023/08/24 09:14:33;;;;;;;6.60;2.78;;;24.00;99.90;;;;;;5014299;28;20030;-37
2023/08/24 09:16:59;;;;;;;3.78;2.75;;;24.00;99.90;;;;;;5014093;28;20049;-42
2023/08/24 09:19:38;;;;;;;5.68;2.80;;;24.00;99.90;;;;;;5014149;28;20053;-41
2023/08/24 09:22:04;;;;;;;4.28;2.53;;;24.00;99.90;;;;;;5014215;28;20076;-41
2023/08/24 09:24:34;;;;;;;3.20;2.47;;;24.00;99.90;;;;;;5014073;28;20030;-41
2023/08/24 09:27:13;;;;;;;4.60;2.38;;;24.00;99.90;;;;;;5013977;28;20494;-42
2023/08/24 09:29:39;;;;;;;3.88;2.40;;;24.00;99.90;;;;;;5013714;28;20365;-43
2023/08/24 09:32:08;;;;;;;4.70;2.40;;;24.00;99.90;;;;;;5013867;28;20111;-40
2023/08/24 09:34:33;;;;;;;3.10;2.53;;;24.10;99.90;;;;;;5013954;28;20029;-42
2023/08/24 09:36:59;;;;;;;3.25;2.42;;;24.10;99.90;;;;;;5013906;28;20052;-40
2023/08/24 09:39:25;;;;;;;5.13;2.53;;;24.10;99.90;;;;;;5014206;28;20025;-39
2023/08/24 09:41:51;;;;;;;4.35;2.70;;;24.10;99.90;;;;;;5013765;28;20029;-40
2023/08/24 09:44:17;;;;;;;3.00;2.17;;;24.10;99.90;;;;;;5013720;28;20088;-39
2023/08/24 09:46:46;;;;;;;3.45;2.20;;;24.10;99.90;;;;;;5013549;28;20030;-41
2023/08/24 09:49:12;;;;;;;3.92;2.22;;;24.10;99.90;;;;;;5013325;28;20036;-41
2023/08/24 09:51:39;;;;;;;4.03;2.20;;;24.10;99.90;;;;;;5013509;28;20022;-41
2023/08/24 09:54:08;;;;;;;4.85;2.67;;;24.10;99.90;;;;;;5013501;28;20022;-40
2023/08/24 09:56:41;;;;;;;4.40;2.38;;;24.10;99.90;;;;;;5012252;28;20113;-39
2023/08/24 09:59:18;;;;;;;4.07;2.40;;;24.10;99.90;;;;;;5012252;28;20041;-39
2023/08/24 10:01:48;;;;;;;4.45;2.63;;;24.10;99.90;;;;;;5013454;28;20030;-40
2023/08/24 10:04:21;;;;;;;4.47;2.50;;;24.10;99.90;;;;;;5013381;28;20072;-39
2023/08/24 10:06:50;;;;;;;3.78;2.33;;;24.20;99.90;;;;;;5013414;28;20430;-41
2023/08/24 10:09:42;;;;;;;3.63;2.22;;;24.20;99.90;;;;;;5013023;28;20025;-39
2023/08/24 10:12:09;;;;;;;5.15;2.38;;;24.20;99.90;;;;;;5005976;28;20044;-39
2023/08/24 10:14:47;;;;;;;4.28;2.15;;;24.20;99.90;;;;;;5013077;28;20049;-39
2023/08/24 10:17:14;;;;;;;4.20;2.60;;;24.20;99.90;;;;;;5013159;28;20038;-42
2023/08/24 10:19:41;;;;;;;3.70;2.38;;;24.20;99.90;;;;;;5013309;28;20026;-40
2023/08/24 10:22:08;;;;;;;3.63;2.63;;;24.20;99.90;;;;;;5012980;28;20029;-40
2023/08/24 10:24:35;;;;;;;3.83;2.28;;;24.20;99.90;;;;;;5013091;28;20103;-39
2023/08/24 10:27:03;;;;;;;3.10;2.38;;;24.30;99.90;;;;;;5012849;28;20057;-43
2023/08/24 10:29:29;;;;;;;5.57;2.83;;;24.30;99.90;;;;;;5012558;28;20045;-41
2023/08/24 10:31:56;;;;;;;4.10;2.28;;;24.30;99.90;;;;;;5012897;28;20103;-39
2023/08/24 10:34:22;;;;;;;3.65;2.47;;;24.30;99.90;;;;;;5012815;28;20022;-40
2023/08/24 10:36:54;;;;;;;3.90;2.20;;;24.30;99.90;;;;;;5012652;28;20021;-39
2023/08/24 10:39:28;;;;;;;3.50;2.25;;;24.30;99.90;;;;;;5012424;28;20037;-39
2023/08/24 10:41:54;;;;;;;3.00;2.33;;;24.30;99.90;;;;;;5012743;28;20026;-39
2023/08/24 10:44:37;;;;;;;3.00;2.17;;;24.30;99.90;;;;;;5011256;28;20040;-40
2023/08/24 10:47:22;;;;;;;3.67;2.00;;;24.30;99.90;;;;;;5012855;28;20021;-40
2023/08/24 10:50:00;;;;;;;3.22;2.35;;;24.30;99.90;;;;;;5012268;28;20030;-39
2023/08/24 10:52:33;;;;;;;5.03;2.65;;;24.40;99.90;;;;;;5012526;28;20025;-39
2023/08/24 10:55:02;;;;;;;2.42;2.10;;;24.40;99.90;;;;;;5012410;28;20018;-44
2023/08/24 10:57:39;;;;;;;3.92;2.50;;;24.40;99.90;;;;;;5012198;28;20032;-40
2023/08/24 11:00:05;;;;;;;5.75;2.60;;;24.40;99.90;;;;;;5012159;28;20022;-43
2023/08/24 11:02:41;;;;;;;3.45;2.22;;;24.40;99.90;;;;;;5012359;28;20401;-41
2023/08/24 11:05:25;;;;;;;3.45;2.53;;;24.40;99.90;;;;;;5012304;28;20030;-41
2023/08/24 11:08:06;;;;;;;3.90;2.35;;;24.40;99.90;;;;;;5012131;28;20022;-43
2023/08/24 11:10:40;;;;;;;3.25;2.22;;;24.40;99.90;;;;;;5011759;28;20026;-41
2023/08/24 11:13:08;;;;;;;3.78;2.50;;;24.40;99.90;;;;;;5012089;28;20136;-40
2023/08/24 11:15:42;;;;;;;5.25;2.42;;;24.40;99.90;;;;;;5012490;28;20029;-39
2023/08/24 11:18:27;;;;;;;5.18;2.63;;;24.40;99.90;;;;;;5012028;28;20037;-39
2023/08/24 11:20:54;;;;;;;3.20;2.50;;;24.40;99.90;;;;;;5012141;28;20399;-40
2023/08/24 11:23:21;;;;;;;3.10;2.42;;;24.40;99.90;;;;;;5011963;28;20377;-41
2023/08/24 11:25:48;;;;;;;4.78;2.60;;;24.50;99.90;;;;;;5012324;28;20061;-42
2023/08/24 11:28:18;;;;;;;6.18;2.33;;;24.50;99.90;;;;;;5011901;28;20030;-42
2023/08/24 11:30:45;;;;;;;2.83;2.28;;;24.50;99.90;;;;;;5011512;28;20021;-40
2023/08/24 11:33:13;;;;;;;3.90;2.60;;;24.50;99.90;;;;;;5012086;28;20030;-39
2023/08/24 11:35:43;;;;;;;4.43;2.03;;;24.50;99.90;;;;;;5011901;28;20093;-39
2023/08/24 11:38:09;;;;;;;2.75;2.40;;;24.50;99.90;;;;;;5011650;28;20116;-41
2023/08/24 11:40:35;;;;;;;3.88;2.33;;;24.50;99.90;;;;;;5011508;28;20157;-40
2023/08/24 11:43:01;;;;;;;3.03;2.42;;;24.50;99.90;;;;;;5012204;28;20046;-40
2023/08/24 11:45:35;;;;;;;4.28;2.30;;;24.50;99.90;;;;;;5011738;28;20026;-40
2023/08/24 11:48:02;;;;;;;2.63;2.38;;;24.50;99.90;;;;;;5011775;28;20503;-39
2023/08/24 11:50:28;;;;;;;7.07;2.85;;;24.50;99.90;;;;;;5011346;28;20125;-39
2023/08/24 11:52:54;;;;;;;4.07;2.33;;;24.50;99.90;;;;;;5011610;28;20022;-39
2023/08/24 11:55:22;;;;;;;3.95;2.78;;;24.50;99.90;;;;;;5011612;28;20022;-40
2023/08/24 11:57:47;;;;;;;3.63;2.53;;;24.50;99.90;;;;;;5011440;28;20198;-41
2023/08/24 12:00:14;;;;;;;5.80;2.75;;;24.50;99.90;;;;;;5011304;28;20559;-40
2023/08/24 12:02:41;;;;;;;2.88;2.55;;;24.50;99.90;;;;;;5011568;28;20029;-38
2023/08/24 12:05:07;;;;;;;3.70;2.50;;;24.50;99.90;;;;;;5011770;28;20387;-41
2023/08/24 12:07:33;;;;;;;4.13;2.47;;;24.50;99.90;;;;;;5011526;28;20033;-41
2023/08/24 12:10:02;;;;;;;3.97;2.78;;;24.50;99.90;;;;;;5011145;28;20034;-41
2023/08/24 12:12:28;;;;;;;5.40;2.70;;;24.50;99.90;;;;;;5011307;28;20032;-40
2023/08/24 12:14:58;;;;;;;4.00;2.67;;;24.50;99.90;;;;;;5011635;28;20022;-41
2023/08/24 12:17:23;;;;;;;3.83;2.50;;;24.50;99.90;;;;;;5011281;28;20054;-41
2023/08/24 12:20:06;;;;;;;3.70;2.50;;;24.50;99.90;;;;;;5011116;28;20073;-41
2023/08/24 12:22:32;;;;;;;3.97;2.70;;;24.50;99.90;;;;;;5011912;28;20046;-43
2023/08/24 12:24:58;;;;;;;3.55;2.47;;;24.50;99.90;;;;;;5015108;28;20029;-41
2023/08/24 12:27:27;;;;;;;2.67;2.35;;;24.50;99.90;;;;;;5015040;28;20506;-40
2023/08/24 12:29:53;;;;;;;4.72;2.60;;;24.60;99.90;;;;;;5014816;28;20487;-40
2023/08/24 12:32:23;;;;;;;3.40;2.60;;;24.60;99.90;;;;;;5015071;28;20037;-41
2023/08/24 12:34:51;;;;;;;6.25;2.60;;;24.60;99.90;;;;;;5015153;28;20026;-41
2023/08/24 12:37:17;;;;;;;4.05;2.50;;;24.60;99.90;;;;;;5014930;28;20494;-43
2023/08/24 12:39:43;;;;;;;4.05;2.33;;;24.60;99.90;;;;;;5014711;28;20026;-43
2023/08/24 12:42:08;;;;;;;4.80;2.60;;;24.60;99.90;;;;;;5014868;28;20030;-41
2023/08/24 12:44:35;;;;;;;4.50;2.70;;;24.60;99.90;;;;;;5014831;28;20511;-41
2023/08/24 12:47:02;;;;;;;4.15;2.70;;;24.60;99.90;;;;;;5014901;28;20053;-40